createdAt,value
2022-11-04T00:00:48.712Z,74.46
2022-11-04T00:03:15.782Z,74.83
2022-11-04T00:05:42.690Z,75.15
2022-11-04T00:08:24.347Z,74.96
2022-11-04T00:11:16.783Z,75.06
2022-11-04T00:13:44.327Z,75.19
2022-11-04T00:16:30.403Z,74.98
2022-11-04T00:18:57.465Z,75.23
2022-11-04T00:21:42.578Z,75.43
2022-11-04T00:24:30.814Z,75.22
2022-11-04T00:27:16.937Z,75.81
2022-11-04T00:29:44.194Z,75.79
2022-11-04T00:32:29.878Z,75.75
2022-11-04T00:34:56.792Z,75.14
2022-11-04T00:37:23.663Z,76.41
2022-11-04T00:39:50.569Z,76.43
2022-11-04T00:42:17.619Z,75.88
2022-11-04T00:44:44.464Z,75.86
2022-11-04T00:47:11.309Z,76.04
2022-11-04T00:49:38.244Z,76.56
2022-11-04T00:52:05.275Z,76.99
2022-11-04T00:54:32.166Z,77.46
2022-11-04T00:56:59.016Z,78.13
2022-11-04T00:59:25.863Z,77.82
2022-11-04T01:01:52.800Z,78.06
2022-11-04T01:04:19.757Z,78.22
2022-11-04T01:06:46.715Z,79.14
2022-11-04T01:09:15.017Z,79.17
2022-11-04T01:11:42.065Z,79.10
2022-11-04T01:14:09.338Z,78.95
2022-11-04T01:16:36.273Z,79.02
2022-11-04T01:19:04.027Z,78.93
2022-11-04T01:21:31.040Z,78.71
2022-11-04T01:23:58.089Z,78.83
2022-11-04T01:26:26.521Z,78.70
2022-11-04T01:28:55.294Z,78.83
2022-11-04T01:31:24.824Z,78.79
2022-11-04T01:33:54.016Z,78.94
2022-11-04T01:36:21.528Z,78.50
2022-11-04T01:38:48.746Z,78.76
2022-11-04T01:41:21.995Z,79.04
2022-11-04T01:43:54.802Z,79.21
2022-11-04T01:46:40.212Z,78.67
2022-11-04T01:49:24.459Z,78.32
2022-11-04T01:52:13.845Z,78.02
2022-11-04T01:54:43.290Z,78.48
2022-11-04T01:57:15.188Z,78.49
2022-11-04T01:59:42.638Z,78.00
2022-11-04T02:02:10.524Z,78.31
2022-11-04T02:04:39.626Z,78.39
2022-11-04T02:07:09.793Z,78.51
2022-11-04T02:09:40.049Z,78.30
2022-11-04T02:12:25.526Z,77.75
2022-11-04T02:14:54.246Z,77.86
2022-11-04T02:17:50.497Z,78.07
2022-11-04T02:20:30.007Z,77.98
2022-11-04T02:23:24.595Z,78.07
2022-11-04T02:25:57.654Z,78.27
2022-11-04T02:28:39.257Z,78.17
2022-11-04T02:31:22.464Z,78.23
2022-11-04T02:34:18.703Z,78.34
2022-11-04T02:37:09.056Z,79.14
2022-11-04T02:39:56.330Z,79.25
2022-11-04T02:42:29.648Z,79.13
2022-11-04T02:45:02.474Z,79.65
2022-11-04T02:47:31.663Z,79.12
2022-11-04T02:50:08.499Z,79.41
2022-11-04T02:52:58.132Z,79.61
2022-11-04T02:55:38.434Z,79.52
2022-11-04T02:58:10.079Z,79.37
2022-11-04T03:00:39.762Z,79.83
2022-11-04T03:03:15.512Z,79.63
2022-11-04T03:05:46.364Z,79.59
2022-11-04T03:08:21.944Z,79.46
2022-11-04T03:10:55.367Z,79.52
2022-11-04T03:13:36.390Z,79.34
2022-11-04T03:16:09.573Z,79.86
2022-11-04T03:18:53.334Z,79.47
2022-11-04T03:21:22.518Z,79.67
2022-11-04T03:23:49.488Z,79.93
2022-11-04T03:26:28.799Z,80.37
2022-11-04T03:28:58.466Z,80.53
2022-11-04T03:31:40.590Z,80.18
2022-11-04T03:34:07.466Z,80.30
2022-11-04T03:36:34.331Z,80.03
2022-11-04T03:39:01.205Z,80.66
2022-11-04T03:41:43.103Z,80.85
2022-11-04T03:44:10.175Z,80.29
2022-11-04T03:46:37.628Z,80.31
2022-11-04T03:49:05.646Z,80.80
2022-11-04T03:51:32.556Z,80.49
2022-11-04T03:54:00.098Z,80.28
2022-11-04T03:56:38.960Z,80.44
2022-11-04T03:59:19.334Z,80.07
2022-11-04T04:02:19.707Z,80.70
2022-11-04T04:04:59.848Z,80.47
2022-11-04T04:07:32.555Z,80.51
2022-11-04T04:10:27.531Z,80.65
2022-11-04T04:13:01.883Z,81.05
2022-11-04T04:15:45.727Z,80.54
2022-11-04T04:18:21.379Z,80.79
2022-11-04T04:20:52.272Z,80.69
2022-11-04T04:23:44.887Z,80.38
2022-11-04T04:26:32.556Z,80.59
2022-11-04T04:29:03.255Z,80.60
2022-11-04T04:31:50.575Z,80.14
2022-11-04T04:34:20.372Z,80.32
2022-11-04T04:37:01.733Z,80.13
2022-11-04T04:39:54.207Z,79.57
2022-11-04T04:42:40.056Z,79.74
2022-11-04T04:45:08.310Z,79.62
2022-11-04T04:47:40.537Z,79.87
2022-11-04T04:50:09.013Z,79.83
2022-11-04T04:52:40.004Z,79.65
2022-11-04T04:55:08.695Z,80.10
2022-11-04T04:57:36.080Z,79.71
2022-11-04T05:00:04.136Z,79.88
2022-11-04T05:02:31.072Z,79.84
2022-11-04T05:04:59.511Z,80.31
2022-11-04T05:07:26.534Z,80.75
2022-11-04T05:09:53.410Z,81.05
2022-11-04T05:12:20.317Z,80.92
2022-11-04T05:14:47.301Z,80.87
2022-11-04T05:17:15.655Z,81.31
2022-11-04T05:19:42.579Z,81.23
2022-11-04T05:22:09.429Z,81.39
2022-11-04T05:24:36.275Z,81.54
2022-11-04T05:27:03.252Z,81.90
2022-11-04T05:29:30.130Z,81.99
2022-11-04T05:31:57.171Z,82.32
2022-11-04T05:34:24.047Z,82.51
2022-11-04T05:36:51.005Z,82.23
2022-11-04T05:39:18.090Z,82.10
2022-11-04T05:41:44.918Z,82.43
2022-11-04T05:44:11.937Z,82.67
2022-11-04T05:46:38.871Z,82.94
2022-11-04T05:49:05.823Z,82.37
2022-11-04T05:51:33.394Z,82.20
2022-11-04T05:54:01.090Z,82.60
2022-11-04T05:56:27.919Z,82.70
2022-11-04T05:58:55.313Z,82.39
2022-11-04T06:01:38.730Z,82.50
2022-11-04T06:04:07.075Z,82.08
2022-11-04T06:06:36.582Z,82.03
2022-11-04T06:09:04.063Z,82.13
2022-11-04T06:11:31.570Z,82.47
2022-11-04T06:13:59.077Z,82.20
2022-11-04T06:16:26.308Z,82.08
2022-11-04T06:18:53.739Z,81.70
2022-11-04T06:21:26.182Z,81.47
2022-11-04T06:23:56.904Z,80.85
2022-11-04T06:26:28.242Z,80.66
2022-11-04T06:28:55.857Z,80.69
2022-11-04T06:31:23.070Z,80.75
2022-11-04T06:33:49.981Z,80.45
2022-11-04T06:36:17.512Z,80.51
2022-11-04T06:38:44.535Z,79.81
2022-11-04T06:41:15.286Z,80.09
2022-11-04T06:43:42.227Z,80.29
2022-11-04T06:46:36.506Z,80.09
2022-11-04T06:49:04.825Z,80.27
2022-11-04T06:51:31.958Z,79.21
2022-11-04T06:53:58.875Z,80.10
2022-11-04T06:56:26.161Z,79.56
2022-11-04T06:58:54.944Z,79.23
2022-11-04T07:01:23.641Z,78.74
2022-11-04T07:03:52.455Z,78.53
2022-11-04T07:06:20.069Z,78.33
2022-11-04T07:08:47.815Z,77.67
2022-11-04T07:11:15.610Z,77.52
2022-11-04T07:13:42.476Z,76.90
2022-11-04T07:16:09.792Z,76.45
2022-11-04T07:18:37.006Z,74.82
2022-11-04T07:21:09.761Z,74.64
2022-11-04T07:23:37.486Z,74.64
2022-11-04T07:26:06.815Z,74.16
2022-11-04T07:28:34.916Z,74.19
2022-11-04T07:31:03.189Z,73.46
2022-11-04T07:33:30.186Z,72.79
2022-11-04T07:35:58.478Z,72.65
2022-11-04T07:38:25.775Z,71.73
2022-11-04T07:40:52.627Z,71.52
2022-11-04T07:43:19.549Z,70.68
2022-11-04T07:45:46.835Z,70.55
2022-11-04T07:48:13.752Z,70.49
2022-11-04T07:50:41.083Z,70.99
2022-11-04T07:53:08.592Z,70.42
2022-11-04T07:55:43.085Z,70.36
2022-11-04T07:58:11.287Z,69.88
2022-11-04T08:00:38.129Z,69.43
2022-11-04T08:03:05.043Z,68.72
2022-11-04T08:05:31.934Z,68.11
2022-11-04T08:07:59.227Z,68.56
2022-11-04T08:10:26.505Z,67.36
2022-11-04T08:12:53.378Z,66.94
2022-11-04T08:15:20.251Z,65.74
2022-11-04T08:17:47.122Z,64.93
2022-11-04T08:20:14.289Z,65.11
2022-11-04T08:22:41.193Z,63.91
2022-11-04T08:25:08.421Z,62.50
2022-11-04T08:27:35.396Z,61.70
2022-11-04T08:30:03.283Z,60.61
2022-11-04T08:32:30.292Z,59.93
2022-11-04T08:34:57.140Z,59.96
2022-11-04T08:37:24.025Z,59.01
2022-11-04T08:39:51.022Z,59.37
2022-11-04T08:42:17.880Z,57.18
2022-11-04T08:44:44.753Z,57.74
2022-11-04T08:47:11.743Z,56.17
2022-11-04T08:49:39.911Z,55.53
2022-11-04T08:52:06.883Z,55.93
2022-11-04T08:54:34.235Z,55.65
2022-11-04T08:57:01.167Z,55.25
2022-11-04T08:59:28.282Z,55.28
2022-11-04T09:01:55.399Z,54.41
2022-11-04T09:04:22.767Z,52.82
2022-11-04T09:06:52.288Z,54.11
2022-11-04T09:09:19.586Z,53.87
2022-11-04T09:11:47.236Z,52.30
2022-11-04T09:14:14.790Z,52.54
2022-11-04T09:16:42.600Z,52.63
2022-11-04T09:19:09.968Z,52.07
2022-11-04T09:21:37.016Z,51.90
2022-11-04T09:24:04.862Z,53.08
2022-11-04T09:26:31.837Z,52.98
2022-11-04T09:28:59.836Z,52.60
2022-11-04T09:31:30.136Z,53.07
2022-11-04T09:33:57.656Z,52.83
2022-11-04T09:36:24.635Z,51.55
2022-11-04T09:38:51.884Z,52.92
2022-11-04T09:41:42.584Z,52.77
2022-11-04T10:17:59.393Z,58.57
2022-11-04T10:20:43.489Z,59.34
2022-11-04T10:23:19.946Z,58.67
2022-11-04T10:26:05.845Z,58.54
2022-11-04T10:28:43.010Z,57.04
2022-11-04T10:31:18.151Z,56.31
2022-11-04T10:33:50.736Z,57.19
2022-11-04T10:36:18.291Z,56.79
2022-11-04T10:38:56.153Z,56.86
2022-11-04T10:41:26.734Z,58.14
2022-11-04T10:44:20.462Z,57.09
2022-11-04T10:47:09.579Z,56.79
2022-11-04T10:50:27.601Z,56.98
2022-11-04T10:52:54.902Z,57.17
2022-11-04T10:55:41.792Z,57.00
2022-11-04T10:58:21.724Z,57.16
2022-11-04T11:00:49.371Z,57.88
2022-11-04T11:03:33.025Z,59.13
2022-11-04T11:06:22.234Z,59.71
2022-11-04T11:08:49.527Z,59.76
2022-11-04T11:11:34.435Z,60.58
2022-11-04T11:14:01.444Z,59.43
2022-11-04T11:16:30.504Z,59.93
2022-11-04T11:19:12.350Z,60.30
2022-11-04T11:21:45.486Z,61.24
2022-11-04T11:24:19.825Z,61.05
2022-11-04T11:26:50.545Z,61.20
2022-11-04T11:29:40.493Z,62.04
2022-11-04T11:32:33.197Z,62.66
2022-11-04T11:35:07.811Z,63.07
2022-11-04T11:37:39.956Z,63.33
2022-11-04T11:40:07.343Z,63.05
2022-11-04T11:42:34.786Z,62.34
2022-11-04T11:45:05.189Z,63.73
2022-11-04T11:47:32.468Z,63.50
2022-11-04T11:50:35.793Z,64.31
2022-11-04T11:53:17.450Z,64.21
2022-11-04T11:55:51.269Z,63.98
2022-11-04T12:01:51.130Z,65.19
2022-11-04T12:10:49.787Z,65.85
2022-11-04T12:13:26.712Z,66.15
2022-11-04T12:16:02.078Z,66.65
2022-11-04T12:19:02.387Z,67.05
2022-11-04T12:21:36.082Z,67.13
2022-11-04T12:24:44.540Z,66.66
2022-11-04T12:27:17.091Z,67.00
2022-11-04T12:30:08.343Z,66.79
2022-11-04T12:32:38.192Z,67.27
2022-11-04T12:35:09.390Z,67.53
2022-11-04T12:38:08.644Z,66.97
2022-11-04T12:41:27.666Z,67.13
2022-11-04T12:44:27.155Z,67.79
2022-11-04T12:47:01.218Z,68.19
2022-11-04T12:49:34.144Z,68.20
2022-11-04T12:52:27.940Z,69.04
2022-11-04T12:55:00.954Z,68.97
2022-11-04T12:57:42.270Z,68.89
2022-11-04T13:00:24.770Z,69.19
2022-11-04T13:03:09.843Z,68.63
2022-11-04T13:05:42.794Z,68.82
2022-11-04T13:08:14.523Z,69.17
2022-11-04T13:10:54.697Z,69.18
2022-11-04T13:13:28.511Z,69.63
2022-11-04T13:16:00.441Z,70.50
2022-11-04T13:18:32.236Z,70.48
2022-11-04T13:21:05.217Z,70.70
2022-11-04T13:23:36.836Z,71.04
2022-11-04T13:26:07.475Z,71.86
2022-11-04T13:28:38.580Z,71.90
2022-11-04T13:31:20.909Z,71.73
2022-11-04T13:34:09.690Z,71.54
2022-11-04T13:36:47.795Z,71.52
2022-11-04T13:39:14.650Z,70.90
2022-11-04T13:41:44.660Z,70.79
2022-11-04T13:44:23.735Z,70.50
2022-11-04T13:46:53.590Z,70.61
2022-11-04T13:49:34.033Z,70.77
2022-11-04T13:52:13.582Z,71.33
2022-11-04T13:54:43.407Z,71.33
2022-11-04T13:57:18.021Z,72.05
2022-11-04T14:00:15.664Z,72.04
2022-11-04T14:02:46.455Z,72.54
2022-11-04T14:05:32.467Z,72.56
2022-11-04T14:08:02.047Z,73.05
2022-11-04T14:10:51.076Z,73.56
2022-11-04T14:13:34.978Z,73.94
2022-11-04T14:16:11.888Z,74.20
2022-11-04T14:18:47.192Z,74.41
2022-11-04T14:21:16.952Z,74.97
2022-11-04T14:23:50.285Z,75.36
2022-11-04T14:26:23.571Z,74.81
2022-11-04T14:29:02.646Z,75.29
2022-11-04T14:31:47.508Z,75.31
2022-11-04T14:34:25.701Z,75.13
2022-11-04T14:37:21.360Z,74.89
2022-11-04T14:39:55.984Z,75.20
2022-11-04T14:42:50.658Z,75.84
2022-11-04T14:45:33.707Z,76.25
2022-11-04T14:48:18.219Z,75.95
2022-11-04T14:50:49.852Z,76.35
2022-11-04T14:53:28.088Z,77.08
2022-11-04T14:56:06.996Z,77.07
2022-11-04T14:58:34.010Z,77.38
2022-11-04T15:01:02.830Z,77.91
2022-11-04T15:06:40.673Z,77.86
2022-11-04T15:09:31.630Z,78.17
2022-11-04T15:12:29.016Z,78.43
2022-11-04T15:14:57.645Z,78.56
2022-11-04T15:17:28.668Z,78.29
2022-11-04T15:19:59.671Z,78.40
2022-11-04T15:22:28.604Z,78.13
2022-11-04T15:24:56.807Z,78.74
2022-11-04T15:27:29.296Z,78.32
2022-11-04T15:30:02.701Z,78.70
2022-11-04T15:32:29.671Z,78.45
2022-11-04T15:34:57.729Z,77.77
2022-11-04T15:37:29.038Z,78.25
2022-11-04T15:39:58.403Z,79.05
2022-11-04T15:42:43.180Z,78.50
2022-11-04T15:45:22.242Z,78.83
2022-11-04T15:47:49.772Z,78.96
2022-11-04T15:50:23.585Z,78.90
2022-11-04T15:52:58.512Z,78.93
2022-11-04T15:55:28.264Z,78.57
2022-11-04T15:57:56.230Z,78.66
2022-11-04T16:00:28.595Z,78.57
2022-11-04T16:02:58.567Z,78.54
2022-11-04T16:05:30.381Z,79.39
2022-11-04T16:08:22.046Z,79.12
2022-11-04T16:10:50.847Z,79.23
2022-11-04T16:13:17.702Z,79.43
2022-11-04T16:16:17.780Z,79.80
2022-11-04T16:18:51.344Z,79.70
2022-11-04T16:21:28.966Z,79.77
2022-11-04T16:24:07.513Z,79.86
2022-11-04T16:26:40.413Z,79.61
2022-11-04T16:29:10.639Z,79.29
2022-11-04T16:31:37.743Z,79.38
2022-11-04T16:34:11.298Z,79.60
2022-11-04T16:36:38.359Z,79.72
2022-11-04T16:39:09.017Z,80.02
2022-11-04T16:41:39.010Z,79.92
2022-11-04T16:44:15.259Z,80.38
2022-11-04T16:46:42.360Z,80.39
2022-11-04T16:49:14.437Z,80.56
2022-11-04T16:51:41.390Z,80.66
2022-11-04T16:54:08.964Z,80.85
2022-11-04T16:56:36.108Z,80.62
2022-11-04T16:59:03.122Z,80.74
2022-11-04T17:01:30.235Z,81.68
2022-11-04T17:03:57.263Z,80.78
2022-11-04T17:06:24.381Z,81.41
2022-11-04T17:08:51.459Z,81.19
2022-11-04T17:11:18.499Z,81.43
2022-11-04T17:13:45.335Z,81.34
2022-11-04T17:16:14.309Z,81.60
2022-11-04T17:18:42.033Z,81.83
2022-11-04T17:21:13.217Z,82.08
2022-11-04T17:23:40.258Z,81.73
2022-11-04T17:26:07.194Z,81.78
2022-11-04T17:28:34.172Z,81.84
2022-11-04T17:31:02.696Z,81.85
2022-11-04T17:33:29.919Z,81.37
2022-11-04T17:35:57.016Z,81.26
2022-11-04T17:38:23.968Z,82.50
2022-11-04T17:41:09.464Z,82.31
2022-11-04T17:43:54.955Z,81.54
2022-11-04T17:46:34.426Z,82.56
2022-11-04T17:49:08.450Z,81.65
2022-11-04T17:51:36.327Z,81.68
2022-11-04T17:54:03.676Z,81.90
2022-11-04T17:56:31.182Z,81.98
2022-11-04T17:59:02.215Z,81.95
2022-11-04T18:01:29.334Z,81.74
2022-11-04T18:03:56.536Z,81.52
2022-11-04T18:06:24.799Z,81.80
2022-11-04T18:08:56.910Z,81.71
2022-11-04T18:11:43.880Z,81.42
2022-11-04T18:14:16.380Z,81.94
2022-11-04T18:16:47.331Z,82.14
2022-11-04T18:19:15.600Z,81.44
2022-11-04T18:21:42.673Z,81.21
2022-11-04T18:24:10.107Z,81.37
2022-11-04T18:26:37.141Z,81.17
2022-11-04T18:29:04.890Z,81.33
2022-11-04T18:31:34.785Z,81.03
2022-11-04T18:34:04.182Z,81.04
2022-11-04T18:36:33.894Z,81.30
2022-11-04T18:39:01.702Z,81.06
2022-11-04T18:41:28.823Z,81.13
2022-11-04T18:43:55.720Z,81.34
2022-11-04T18:46:22.731Z,81.60
2022-11-04T18:48:51.341Z,80.88
2022-11-04T18:51:23.296Z,80.95
2022-11-04T18:53:51.465Z,81.24
2022-11-04T18:56:20.630Z,81.17
2022-11-04T18:58:48.767Z,81.65
2022-11-04T19:01:23.159Z,81.90
2022-11-04T19:03:51.129Z,81.37
2022-11-04T19:06:25.063Z,81.48
2022-11-04T19:08:56.004Z,81.57
2022-11-04T19:11:28.862Z,81.39
2022-11-04T19:14:05.172Z,82.01
2022-11-04T19:16:36.233Z,82.02
2022-11-04T19:19:05.334Z,82.05
2022-11-04T19:21:32.774Z,82.05
2022-11-04T19:24:00.690Z,82.36
2022-11-04T19:26:32.709Z,82.28
2022-11-04T19:29:01.018Z,82.49
2022-11-04T19:31:30.556Z,82.45
2022-11-04T19:33:59.352Z,82.90
2022-11-04T19:36:26.625Z,82.58
2022-11-04T19:38:55.014Z,82.21
2022-11-04T19:41:41.343Z,82.06
2022-11-04T19:44:11.699Z,82.41
2022-11-04T19:46:39.460Z,82.41
2022-11-04T19:49:07.191Z,82.85
2022-11-04T19:51:35.262Z,82.36
2022-11-04T19:54:02.522Z,82.45
2022-11-04T19:56:31.422Z,82.68
2022-11-04T19:59:03.052Z,83.00
2022-11-04T20:01:34.465Z,83.24
2022-11-04T20:04:05.358Z,83.31
2022-11-04T20:06:33.298Z,83.49
2022-11-04T20:09:08.025Z,83.71
2022-11-04T20:11:57.340Z,83.62
2022-11-04T20:14:24.884Z,83.58
2022-11-04T20:16:51.950Z,83.60
2022-11-04T20:19:22.637Z,83.46
2022-11-04T20:21:50.207Z,83.85
2022-11-04T20:24:17.124Z,83.73
2022-11-04T20:26:44.504Z,83.95
2022-11-04T20:29:12.186Z,83.42
2022-11-04T20:31:41.360Z,83.90
2022-11-04T20:34:10.623Z,83.79
2022-11-04T20:36:38.525Z,83.64
2022-11-04T20:39:08.550Z,83.95
2022-11-04T20:41:35.499Z,83.85
2022-11-04T20:44:02.947Z,83.67
2022-11-04T20:46:31.635Z,83.83
2022-11-04T20:48:59.165Z,84.08
2022-11-04T20:51:31.261Z,84.27
2022-11-04T20:54:00.682Z,83.73
2022-11-04T20:56:32.996Z,84.00
2022-11-04T20:59:00.613Z,84.04
2022-11-04T21:01:30.866Z,83.95
2022-11-04T21:04:11.394Z,83.91
2022-11-04T21:06:39.481Z,84.18
2022-11-04T21:09:08.957Z,84.39
2022-11-04T21:11:36.463Z,84.23
2022-11-04T21:14:04.453Z,84.32
2022-11-04T21:16:31.465Z,84.81
2022-11-04T21:18:58.582Z,84.80
2022-11-04T21:21:28.404Z,85.06
2022-11-04T21:23:59.659Z,84.39
2022-11-04T21:26:28.675Z,84.56
2022-11-04T21:29:01.639Z,84.63
2022-11-04T21:31:30.677Z,85.25
2022-11-04T21:33:58.292Z,85.38
2022-11-04T21:36:25.769Z,85.42
2022-11-04T21:38:53.041Z,85.44
2022-11-04T21:41:24.543Z,85.34
2022-11-04T21:43:59.220Z,85.56
2022-11-04T21:46:27.812Z,85.54
2022-11-04T21:48:55.743Z,85.91
2022-11-04T21:51:25.482Z,85.50
2022-11-04T21:53:52.495Z,85.91
2022-11-04T21:56:22.229Z,85.87
2022-11-04T21:58:49.363Z,86.19
2022-11-04T22:01:18.995Z,86.24
2022-11-04T22:03:53.304Z,85.99
2022-11-04T22:06:20.279Z,86.68
2022-11-04T22:08:56.304Z,86.74
2022-11-04T22:11:28.924Z,86.62
2022-11-04T22:14:02.035Z,86.63
2022-11-04T22:16:31.010Z,86.63
2022-11-04T22:18:59.822Z,86.33
2022-11-04T22:21:28.948Z,86.26
2022-11-04T22:23:57.017Z,85.96
2022-11-04T22:26:26.502Z,86.19
2022-11-04T22:28:54.426Z,85.63
2022-11-04T22:31:29.956Z,86.10
2022-11-04T22:33:57.730Z,86.03
2022-11-04T22:36:24.631Z,86.25
2022-11-04T22:38:51.544Z,86.01
2022-11-04T22:41:21.645Z,86.46
2022-11-04T22:43:48.863Z,86.24
2022-11-04T22:46:19.915Z,86.08
2022-11-04T22:48:47.165Z,85.95
2022-11-04T22:51:14.558Z,85.56
2022-11-04T22:53:41.585Z,85.12
2022-11-04T22:56:11.261Z,85.37
2022-11-04T22:58:38.403Z,86.00
2022-11-04T23:01:11.709Z,86.21
2022-11-04T23:03:39.526Z,85.33
2022-11-04T23:06:07.993Z,85.54
2022-11-04T23:08:36.304Z,85.98
2022-11-04T23:11:34.121Z,85.87
2022-11-04T23:14:21.114Z,86.24
2022-11-04T23:17:08.898Z,85.90
2022-11-04T23:19:37.607Z,85.98
2022-11-04T23:22:23.397Z,85.85
2022-11-04T23:25:08.993Z,86.34
2022-11-04T23:27:57.118Z,86.62
2022-11-04T23:30:25.897Z,86.36
2022-11-04T23:32:57.159Z,87.00
2022-11-04T23:35:51.228Z,86.56
2022-11-04T23:38:19.469Z,86.72
2022-11-04T23:41:07.347Z,86.49
2022-11-04T23:43:34.943Z,86.60
2022-11-04T23:46:21.003Z,86.46
2022-11-04T23:49:26.253Z,86.78
2022-11-04T23:52:11.703Z,86.84
2022-11-04T23:54:57.305Z,86.63
2022-11-04T23:57:42.857Z,86.65
